Česky Dansk Deutsch English Español Suomi Français Magyar Italiano Nederlands norsk Polski Português svenska Türkçe

 

Het Weer

Nelspruit (Zuid Afrika)

06:00, 16 december 2008 (GMT)

NWNNE
WE
SWSSE
Home            
Nelspruit Carolina Hoedspruit Manzini / Matsapa Airport Ermelo Maputo / Mavalane Phalaborwa Witbank Tzaneen Pietersburg Civil Pietersburg Standerton Vryheid Xai Xai Springs Wonderboom / Pretoria Newcastle Waterkloof (SAAF) Pretoria Irene Pretoria Johannesburg International Airport Lanseria Rand

Om een weerknop op uw website of weblog te plaatsen, copieer onderstaande code en plak die in uw pagina. In het eerste vakje staat HTML-code, in het tweede vakje UBB-code.


Add to Google

Details

Wind speed:1 bf, 2 kn, 1.0 m/s, 2.3 miles/h, 3.7 km/h
Wind direction:S, 170°
Het Weer:moderate
moderate
moderate
Temperature:18°C, 64°F
Dew-point:16°C, 61°F
Atmospheric pressure:1022 hPa, 766.6 mmHg, 30.18 inHg, 1.009 atm
Relative humidity:88.1 %
METAR:FANS 160600Z AUTO 17002KT 18/16 Q1022

Snelkoppelingen

Actuele weersinformatie van de hele wereld. Voeg locaties toe met het plus (+) symbool. Deze snelkoppelingen kunnen worden toegevoegd aan Google.

Lid van de Technetium groep

website free tracking
StatCounter NetStat W3C Validator

20-10-2018 12:03:26
astro.technetium.be money.technetium.be phote.technetium.be tafeltennistafel.technetium.be www.ligfiets.net